sensor_id;sensor_type;location;lat;lon;timestamp;temperature;humidity
48734;DHT22;34530;52.084;5.146;2022-09-12T00:01:10;24.00;56.00
48734;DHT22;34530;52.084;5.146;2022-09-12T00:03:37;24.10;56.00
48734;DHT22;34530;52.084;5.146;2022-09-12T00:06:33;24.00;56.10
48734;DHT22;34530;52.084;5.146;2022-09-12T00:09:08;24.00;56.00
48734;DHT22;34530;52.084;5.146;2022-09-12T00:11:36;24.00;56.10
48734;DHT22;34530;52.084;5.146;2022-09-12T00:14:03;24.00;56.10
48734;DHT22;34530;52.084;5.146;2022-09-12T00:16:31;24.00;56.10
48734;DHT22;34530;52.084;5.146;2022-09-12T00:18:57;24.00;56.20
48734;DHT22;34530;52.084;5.146;2022-09-12T00:21:22;24.00;56.10
48734;DHT22;34530;52.084;5.146;2022-09-12T00:23:49;24.00;56.10
48734;DHT22;34530;52.084;5.146;2022-09-12T00:26:15;23.90;56.10
48734;DHT22;34530;52.084;5.146;2022-09-12T00:28:42;23.90;56.10
48734;DHT22;34530;52.084;5.146;2022-09-12T00:31:11;23.90;56.10
48734;DHT22;34530;52.084;5.146;2022-09-12T00:33:37;23.90;56.10
48734;DHT22;34530;52.084;5.146;2022-09-12T00:36:11;23.90;56.10
48734;DHT22;34530;52.084;5.146;2022-09-12T00:38:39;23.90;56.10
48734;DHT22;34530;52.084;5.146;2022-09-12T00:41:10;23.80;56.10
48734;DHT22;34530;52.084;5.146;2022-09-12T00:43:45;23.80;56.10
48734;DHT22;34530;52.084;5.146;2022-09-12T00:46:32;23.80;56.10
48734;DHT22;34530;52.084;5.146;2022-09-12T00:49:24;23.80;56.00
48734;DHT22;34530;52.084;5.146;2022-09-12T00:51:54;23.80;56.10
48734;DHT22;34530;52.084;5.146;2022-09-12T00:54:24;23.80;56.10
48734;DHT22;34530;52.084;5.146;2022-09-12T00:56:55;23.80;56.10
48734;DHT22;34530;52.084;5.146;2022-09-12T00:59:33;23.80;56.10
48734;DHT22;34530;52.084;5.146;2022-09-12T01:02:00;23.80;56.10
48734;DHT22;34530;52.084;5.146;2022-09-12T01:04:26;23.80;56.10
48734;DHT22;34530;52.084;5.146;2022-09-12T01:06:53;23.80;56.10
48734;DHT22;34530;52.084;5.146;2022-09-12T01:09:21;23.80;56.10
48734;DHT22;34530;52.084;5.146;2022-09-12T01:11:48;23.80;56.10
48734;DHT22;34530;52.084;5.146;2022-09-12T01:14:16;23.80;56.10
48734;DHT22;34530;52.084;5.146;2022-09-12T01:16:42;23.80;56.10
48734;DHT22;34530;52.084;5.146;2022-09-12T01:31:04;23.70;56.00
48734;DHT22;34530;52.084;5.146;2022-09-12T01:33:56;23.70;56.00
48734;DHT22;34530;52.084;5.146;2022-09-12T01:36:56;23.70;56.00
48734;DHT22;34530;52.084;5.146;2022-09-12T01:48:23;23.70;56.10
48734;DHT22;34530;52.084;5.146;2022-09-12T01:51:00;23.60;56.00
48734;DHT22;34530;52.084;5.146;2022-09-12T01:53:34;23.60;56.00
48734;DHT22;34530;52.084;5.146;2022-09-12T01:56:34;23.60;56.00
48734;DHT22;34530;52.084;5.146;2022-09-12T01:59:06;23.70;56.00
48734;DHT22;34530;52.084;5.146;2022-09-12T02:01:37;23.60;56.00
48734;DHT22;34530;52.084;5.146;2022-09-12T02:04:24;23.60;56.00
48734;DHT22;34530;52.084;5.146;2022-09-12T02:06:58;23.60;55.90
48734;DHT22;34530;52.084;5.146;2022-09-12T02:12:10;23.60;55.90
48734;DHT22;34530;52.084;5.146;2022-09-12T02:14:47;23.60;56.00
48734;DHT22;34530;52.084;5.146;2022-09-12T02:17:18;23.60;55.90
48734;DHT22;34530;52.084;5.146;2022-09-12T02:19:53;23.60;55.90
48734;DHT22;34530;52.084;5.146;2022-09-12T02:22:22;23.50;55.90
48734;DHT22;34530;52.084;5.146;2022-09-12T02:24:53;23.60;55.90
48734;DHT22;34530;52.084;5.146;2022-09-12T02:27:35;23.60;56.00
48734;DHT22;34530;52.084;5.146;2022-09-12T02:30:04;23.60;55.90
48734;DHT22;34530;52.084;5.146;2022-09-12T02:32:40;23.50;55.90
48734;DHT22;34530;52.084;5.146;2022-09-12T02:38:10;23.50;55.80
48734;DHT22;34530;52.084;5.146;2022-09-12T02:40:39;23.50;55.90
48734;DHT22;34530;52.084;5.146;2022-09-12T02:43:05;23.50;55.90
48734;DHT22;34530;52.084;5.146;2022-09-12T02:45:32;23.50;55.90
48734;DHT22;34530;52.084;5.146;2022-09-12T02:48:00;23.50;55.90
48734;DHT22;34530;52.084;5.146;2022-09-12T02:50:27;23.50;55.90
48734;DHT22;34530;52.084;5.146;2022-09-12T02:52:53;23.50;55.90
48734;DHT22;34530;52.084;5.146;2022-09-12T02:55:20;23.50;55.90
48734;DHT22;34530;52.084;5.146;2022-09-12T02:57:45;23.50;55.90
48734;DHT22;34530;52.084;5.146;2022-09-12T03:00:12;23.40;55.80
48734;DHT22;34530;52.084;5.146;2022-09-12T03:03:05;23.50;55.90
48734;DHT22;34530;52.084;5.146;2022-09-12T03:05:37;23.50;55.80
48734;DHT22;34530;52.084;5.146;2022-09-12T03:08:28;23.40;55.80
48734;DHT22;34530;52.084;5.146;2022-09-12T03:13:39;23.40;55.90
48734;DHT22;34530;52.084;5.146;2022-09-12T03:16:27;23.40;55.90
48734;DHT22;34530;52.084;5.146;2022-09-12T03:19:10;23.40;55.80
48734;DHT22;34530;52.084;5.146;2022-09-12T03:22:03;23.40;55.90
48734;DHT22;34530;52.084;5.146;2022-09-12T03:24:42;23.40;55.80
48734;DHT22;34530;52.084;5.146;2022-09-12T03:27:14;23.40;55.80
48734;DHT22;34530;52.084;5.146;2022-09-12T03:29:42;23.40;55.90
48734;DHT22;34530;52.084;5.146;2022-09-12T03:32:08;23.40;55.90
48734;DHT22;34530;52.084;5.146;2022-09-12T03:34:34;23.40;55.90
48734;DHT22;34530;52.084;5.146;2022-09-12T03:37:00;23.40;55.90
48734;DHT22;34530;52.084;5.146;2022-09-12T03:39:26;23.40;55.90
48734;DHT22;34530;52.084;5.146;2022-09-12T03:41:53;23.30;55.80
48734;DHT22;34530;52.084;5.146;2022-09-12T03:44:19;23.40;55.90
48734;DHT22;34530;52.084;5.146;2022-09-12T03:46:45;23.30;55.80
48734;DHT22;34530;52.084;5.146;2022-09-12T03:49:11;23.30;55.80
48734;DHT22;34530;52.084;5.146;2022-09-12T03:51:38;23.30;55.80
48734;DHT22;34530;52.084;5.146;2022-09-12T03:54:04;23.30;55.80
48734;DHT22;34530;52.084;5.146;2022-09-12T03:56:30;23.30;55.80
48734;DHT22;34530;52.084;5.146;2022-09-12T03:58:56;23.30;55.80
48734;DHT22;34530;52.084;5.146;2022-09-12T04:01:22;23.30;55.80
48734;DHT22;34530;52.084;5.146;2022-09-12T04:03:50;23.30;55.80
48734;DHT22;34530;52.084;5.146;2022-09-12T04:06:20;23.30;55.80
48734;DHT22;34530;52.084;5.146;2022-09-12T04:08:51;23.30;55.80
48734;DHT22;34530;52.084;5.146;2022-09-12T04:11:18;23.30;55.80
48734;DHT22;34530;52.084;5.146;2022-09-12T04:13:45;23.30;55.80
48734;DHT22;34530;52.084;5.146;2022-09-12T04:16:12;23.30;55.80
48734;DHT22;34530;52.084;5.146;2022-09-12T04:18:38;23.20;55.80
48734;DHT22;34530;52.084;5.146;2022-09-12T04:21:06;23.30;55.80
48734;DHT22;34530;52.084;5.146;2022-09-12T04:23:32;23.30;55.80
48734;DHT22;34530;52.084;5.146;2022-09-12T04:26:00;23.20;55.80
48734;DHT22;34530;52.084;5.146;2022-09-12T04:28:27;23.20;55.80
48734;DHT22;34530;52.084;5.146;2022-09-12T04:30:53;23.20;55.80
48734;DHT22;34530;52.084;5.146;2022-09-12T04:33:19;23.20;55.80
48734;DHT22;34530;52.084;5.146;2022-09-12T04:35:45;23.20;55.80
48734;DHT22;34530;52.084;5.146;2022-09-12T04:38:11;23.20;55.80
48734;DHT22;34530;52.084;5.146;2022-09-12T04:40:37;23.20;55.80
48734;DHT22;34530;52.084;5.146;2022-09-12T04:43:03;23.20;55.80
48734;DHT22;34530;52.084;5.146;2022-09-12T04:45:29;23.10;55.80
48734;DHT22;34530;52.084;5.146;2022-09-12T04:47:54;23.10;55.80
48734;DHT22;34530;52.084;5.146;2022-09-12T04:50:21;23.10;55.80
48734;DHT22;34530;52.084;5.146;2022-09-12T04:52:53;23.10;55.80
48734;DHT22;34530;52.084;5.146;2022-09-12T04:55:19;23.10;55.80
48734;DHT22;34530;52.084;5.146;2022-09-12T04:57:45;23.10;55.90
48734;DHT22;34530;52.084;5.146;2022-09-12T05:00:11;23.10;55.90
48734;DHT22;34530;52.084;5.146;2022-09-12T05:02:40;23.10;55.90
48734;DHT22;34530;52.084;5.146;2022-09-12T05:05:06;23.10;55.90
48734;DHT22;34530;52.084;5.146;2022-09-12T05:07:32;23.10;55.90
48734;DHT22;34530;52.084;5.146;2022-09-12T05:09:58;23.10;55.90
48734;DHT22;34530;52.084;5.146;2022-09-12T05:12:25;23.00;55.90
48734;DHT22;34530;52.084;5.146;2022-09-12T05:14:50;23.10;55.90
48734;DHT22;34530;52.084;5.146;2022-09-12T05:17:16;23.10;55.90
48734;DHT22;34530;52.084;5.146;2022-09-12T05:19:41;23.00;55.90
48734;DHT22;34530;52.084;5.146;2022-09-12T05:22:07;23.00;55.90
48734;DHT22;34530;52.084;5.146;2022-09-12T05:24:34;23.00;56.50
48734;DHT22;34530;52.084;5.146;2022-09-12T05:26:59;23.00;55.90
48734;DHT22;34530;52.084;5.146;2022-09-12T05:29:26;23.00;56.00
48734;DHT22;34530;52.084;5.146;2022-09-12T05:31:52;23.00;56.00
48734;DHT22;34530;52.084;5.146;2022-09-12T05:34:18;23.00;56.00
48734;DHT22;34530;52.084;5.146;2022-09-12T05:36:44;23.00;55.90
48734;DHT22;34530;52.084;5.146;2022-09-12T05:39:10;23.00;56.00
48734;DHT22;34530;52.084;5.146;2022-09-12T05:41:36;23.00;56.00
48734;DHT22;34530;52.084;5.146;2022-09-12T05:44:05;23.00;56.00
48734;DHT22;34530;52.084;5.146;2022-09-12T05:46:41;23.00;56.00
48734;DHT22;34530;52.084;5.146;2022-09-12T05:49:09;23.00;56.00
48734;DHT22;34530;52.084;5.146;2022-09-12T05:51:41;22.90;56.00
48734;DHT22;34530;52.084;5.146;2022-09-12T05:54:09;22.90;56.00
48734;DHT22;34530;52.084;5.146;2022-09-12T05:56:38;22.90;56.00
48734;DHT22;34530;52.084;5.146;2022-09-12T05:59:07;22.90;56.00
48734;DHT22;34530;52.084;5.146;2022-09-12T06:01:35;22.90;56.00
48734;DHT22;34530;52.084;5.146;2022-09-12T06:04:03;22.90;56.00
48734;DHT22;34530;52.084;5.146;2022-09-12T06:06:30;22.90;56.10
48734;DHT22;34530;52.084;5.146;2022-09-12T06:09:01;22.90;56.00
48734;DHT22;34530;52.084;5.146;2022-09-12T06:11:29;22.90;56.60
48734;DHT22;34530;52.084;5.146;2022-09-12T06:13:56;22.90;56.00
48734;DHT22;34530;52.084;5.146;2022-09-12T06:16:24;22.90;56.00
48734;DHT22;34530;52.084;5.146;2022-09-12T06:18:57;22.90;56.10
48734;DHT22;34530;52.084;5.146;2022-09-12T06:21:24;22.90;56.00
48734;DHT22;34530;52.084;5.146;2022-09-12T06:23:53;22.90;56.10
48734;DHT22;34530;52.084;5.146;2022-09-12T06:26:18;22.80;56.10
48734;DHT22;34530;52.084;5.146;2022-09-12T06:28:49;22.80;56.10
48734;DHT22;34530;52.084;5.146;2022-09-12T06:31:20;22.80;56.10
48734;DHT22;34530;52.084;5.146;2022-09-12T06:33:48;22.80;56.10
48734;DHT22;34530;52.084;5.146;2022-09-12T06:36:17;22.80;56.10
48734;DHT22;34530;52.084;5.146;2022-09-12T06:38:43;22.80;56.10
48734;DHT22;34530;52.084;5.146;2022-09-12T06:41:13;22.80;56.10
48734;DHT22;34530;52.084;5.146;2022-09-12T06:43:40;22.80;56.10
48734;DHT22;34530;52.084;5.146;2022-09-12T06:46:07;22.80;56.10
48734;DHT22;34530;52.084;5.146;2022-09-12T06:48:33;22.80;56.20
48734;DHT22;34530;52.084;5.146;2022-09-12T06:51:04;22.80;56.10
48734;DHT22;34530;52.084;5.146;2022-09-12T06:53:31;22.80;56.20
48734;DHT22;34530;52.084;5.146;2022-09-12T06:56:03;22.80;56.40
48734;DHT22;34530;52.084;5.146;2022-09-12T06:58:30;22.80;56.20
48734;DHT22;34530;52.084;5.146;2022-09-12T07:01:19;22.80;56.20
48734;DHT22;34530;52.084;5.146;2022-09-12T07:03:53;22.80;56.80
48734;DHT22;34530;52.084;5.146;2022-09-12T07:06:22;22.80;56.30
48734;DHT22;34530;52.084;5.146;2022-09-12T07:09:00;22.80;56.30
48734;DHT22;34530;52.084;5.146;2022-09-12T07:11:35;22.70;56.30
48734;DHT22;34530;52.084;5.146;2022-09-12T07:14:02;22.70;56.30
48734;DHT22;34530;52.084;5.146;2022-09-12T07:16:28;22.70;56.30
48734;DHT22;34530;52.084;5.146;2022-09-12T07:18:57;22.70;56.40
48734;DHT22;34530;52.084;5.146;2022-09-12T07:21:23;22.70;56.40
48734;DHT22;34530;52.084;5.146;2022-09-12T07:23:49;22.70;56.40
48734;DHT22;34530;52.084;5.146;2022-09-12T07:26:16;22.70;56.40
48734;DHT22;34530;52.084;5.146;2022-09-12T07:28:43;22.70;56.40
48734;DHT22;34530;52.084;5.146;2022-09-12T07:31:14;22.70;56.40
48734;DHT22;34530;52.084;5.146;2022-09-12T07:33:41;22.70;56.40
48734;DHT22;34530;52.084;5.146;2022-09-12T07:36:11;22.70;56.50
48734;DHT22;34530;52.084;5.146;2022-09-12T07:38:38;22.70;56.50
48734;DHT22;34530;52.084;5.146;2022-09-12T07:41:21;22.70;56.60
48734;DHT22;34530;52.084;5.146;2022-09-12T07:43:50;22.70;56.50
48734;DHT22;34530;52.084;5.146;2022-09-12T07:46:16;22.60;56.50
48734;DHT22;34530;52.084;5.146;2022-09-12T07:48:42;22.60;56.50
48734;DHT22;34530;52.084;5.146;2022-09-12T07:51:10;22.60;56.60
48734;DHT22;34530;52.084;5.146;2022-09-12T07:53:40;22.60;56.60
48734;DHT22;34530;52.084;5.146;2022-09-12T07:56:07;22.60;56.60
48734;DHT22;34530;52.084;5.146;2022-09-12T07:58:36;22.60;56.60
48734;DHT22;34530;52.084;5.146;2022-09-12T08:01:05;22.60;56.60
48734;DHT22;34530;52.084;5.146;2022-09-12T08:03:33;22.60;56.70
48734;DHT22;34530;52.084;5.146;2022-09-12T08:08:33;22.60;56.70
48734;DHT22;34530;52.084;5.146;2022-09-12T08:11:01;22.60;56.80
48734;DHT22;34530;52.084;5.146;2022-09-12T08:13:29;22.60;56.80
48734;DHT22;34530;52.084;5.146;2022-09-12T08:16:03;22.60;56.80
48734;DHT22;34530;52.084;5.146;2022-09-12T08:18:30;22.60;56.80
48734;DHT22;34530;52.084;5.146;2022-09-12T08:21:01;22.60;56.80
48734;DHT22;34530;52.084;5.146;2022-09-12T08:23:28;22.60;56.90
48734;DHT22;34530;52.084;5.146;2022-09-12T08:25:58;22.60;56.90
48734;DHT22;34530;52.084;5.146;2022-09-12T08:28:25;22.60;56.80
48734;DHT22;34530;52.084;5.146;2022-09-12T08:31:02;22.60;57.50
48734;DHT22;34530;52.084;5.146;2022-09-12T08:33:29;22.60;56.90
48734;DHT22;34530;52.084;5.146;2022-09-12T08:36:19;22.60;56.90
48734;DHT22;34530;52.084;5.146;2022-09-12T08:38:47;22.60;56.80
48734;DHT22;34530;52.084;5.146;2022-09-12T08:41:34;22.60;56.90
48734;DHT22;34530;52.084;5.146;2022-09-12T08:47:11;22.50;56.80
48734;DHT22;34530;52.084;5.146;2022-09-12T08:50:03;22.50;56.90
48734;DHT22;34530;52.084;5.146;2022-09-12T08:57:48;22.50;56.90
48734;DHT22;34530;52.084;5.146;2022-09-12T09:00:15;22.50;57.00
48734;DHT22;34530;52.084;5.146;2022-09-12T09:11:44;22.50;57.10
48734;DHT22;34530;52.084;5.146;2022-09-12T09:17:20;22.50;57.20
48734;DHT22;34530;52.084;5.146;2022-09-12T09:19:54;22.50;57.30
48734;DHT22;34530;52.084;5.146;2022-09-12T09:24:58;22.60;57.30
48734;DHT22;34530;52.084;5.146;2022-09-12T09:27:34;22.60;57.40
48734;DHT22;34530;52.084;5.146;2022-09-12T09:30:04;22.60;57.40
48734;DHT22;34530;52.084;5.146;2022-09-12T09:32:38;22.60;57.30
48734;DHT22;34530;52.084;5.146;2022-09-12T09:35:20;22.70;57.40
48734;DHT22;34530;52.084;5.146;2022-09-12T09:37:57;22.70;57.30
48734;DHT22;34530;52.084;5.146;2022-09-12T09:40:36;22.80;57.30
48734;DHT22;34530;52.084;5.146;2022-09-12T09:43:18;22.80;57.30
48734;DHT22;34530;52.084;5.146;2022-09-12T09:45:44;22.80;57.20
48734;DHT22;34530;52.084;5.146;2022-09-12T09:50:42;22.90;57.30
48734;DHT22;34530;52.084;5.146;2022-09-12T09:53:14;22.90;57.30
48734;DHT22;34530;52.084;5.146;2022-09-12T09:55:43;22.90;57.30
48734;DHT22;34530;52.084;5.146;2022-09-12T09:58:10;22.90;57.30
48734;DHT22;34530;52.084;5.146;2022-09-12T10:00:36;22.90;57.30
48734;DHT22;34530;52.084;5.146;2022-09-12T10:08:33;23.00;57.30
48734;DHT22;34530;52.084;5.146;2022-09-12T10:13:52;23.00;57.20
48734;DHT22;34530;52.084;5.146;2022-09-12T10:18:59;23.10;57.20
48734;DHT22;34530;52.084;5.146;2022-09-12T10:21:40;23.10;57.30
48734;DHT22;34530;52.084;5.146;2022-09-12T10:24:25;23.10;57.20
48734;DHT22;34530;52.084;5.146;2022-09-12T10:26:57;23.10;57.20
48734;DHT22;34530;52.084;5.146;2022-09-12T10:29:26;23.10;57.20
48734;DHT22;34530;52.084;5.146;2022-09-12T10:32:05;23.10;57.20
48734;DHT22;34530;52.084;5.146;2022-09-12T10:34:43;23.10;57.10
48734;DHT22;34530;52.084;5.146;2022-09-12T10:37:25;23.20;57.10
48734;DHT22;34530;52.084;5.146;2022-09-12T10:39:55;23.10;57.00
48734;DHT22;34530;52.084;5.146;2022-09-12T10:42:40;23.10;57.00
48734;DHT22;34530;52.084;5.146;2022-09-12T10:45:27;23.20;57.00
48734;DHT22;34530;52.084;5.146;2022-09-12T10:47:58;23.20;57.00
48734;DHT22;34530;52.084;5.146;2022-09-12T10:50:35;23.10;57.00
48734;DHT22;34530;52.084;5.146;2022-09-12T10:53:19;23.20;57.00
48734;DHT22;34530;52.084;5.146;2022-09-12T10:58:29;23.20;57.00
48734;DHT22;34530;52.084;5.146;2022-09-12T11:04:04;23.30;57.00
48734;DHT22;34530;52.084;5.146;2022-09-12T11:09:52;23.30;56.90
48734;DHT22;34530;52.084;5.146;2022-09-12T11:12:28;23.30;56.90
48734;DHT22;34530;52.084;5.146;2022-09-12T11:40:32;23.40;56.90
48734;DHT22;34530;52.084;5.146;2022-09-12T11:45:44;23.40;56.70
48734;DHT22;34530;52.084;5.146;2022-09-12T11:48:37;23.40;56.70
48734;DHT22;34530;52.084;5.146;2022-09-12T11:51:06;23.40;56.70
48734;DHT22;34530;52.084;5.146;2022-09-12T11:53:39;23.40;56.70
48734;DHT22;34530;52.084;5.146;2022-09-12T11:56:27;23.40;56.70
48734;DHT22;34530;52.084;5.146;2022-09-12T11:59:13;23.40;56.60
48734;DHT22;34530;52.084;5.146;2022-09-12T12:01:42;23.40;56.60
48734;DHT22;34530;52.084;5.146;2022-09-12T12:04:15;23.50;56.70
48734;DHT22;34530;52.084;5.146;2022-09-12T12:06:48;23.40;56.60
48734;DHT22;34530;52.084;5.146;2022-09-12T12:09:14;23.50;56.60
48734;DHT22;34530;52.084;5.146;2022-09-12T12:11:47;23.50;56.60
48734;DHT22;34530;52.084;5.146;2022-09-12T12:14:24;23.50;56.60
48734;DHT22;34530;52.084;5.146;2022-09-12T12:16:51;23.50;56.60
48734;DHT22;34530;52.084;5.146;2022-09-12T12:21:47;23.50;56.60
48734;DHT22;34530;52.084;5.146;2022-09-12T12:34:44;23.60;56.40
48734;DHT22;34530;52.084;5.146;2022-09-12T12:39:57;23.60;56.50
48734;DHT22;34530;52.084;5.146;2022-09-12T12:47:49;23.60;56.50
48734;DHT22;34530;52.084;5.146;2022-09-12T12:55:46;23.70;56.50
48734;DHT22;34530;52.084;5.146;2022-09-12T13:03:39;23.70;56.40
48734;DHT22;34530;52.084;5.146;2022-09-12T13:06:07;23.70;56.40
48734;DHT22;34530;52.084;5.146;2022-09-12T13:08:38;23.70;56.40
48734;DHT22;34530;52.084;5.146;2022-09-12T13:11:13;23.70;56.40
48734;DHT22;34530;52.084;5.146;2022-09-12T13:16:52;23.70;56.30
48734;DHT22;34530;52.084;5.146;2022-09-12T13:19:24;23.80;56.30
48734;DHT22;34530;52.084;5.146;2022-09-12T13:22:06;23.70;56.30
48734;DHT22;34530;52.084;5.146;2022-09-12T13:24:32;23.80;56.30
48734;DHT22;34530;52.084;5.146;2022-09-12T13:26:58;23.80;56.30
48734;DHT22;34530;52.084;5.146;2022-09-12T13:29:26;23.80;56.20
48734;DHT22;34530;52.084;5.146;2022-09-12T13:31:57;23.80;56.20
48734;DHT22;34530;52.084;5.146;2022-09-12T13:34:29;23.80;56.10
48734;DHT22;34530;52.084;5.146;2022-09-12T13:39:53;23.80;56.10
48734;DHT22;34530;52.084;5.146;2022-09-12T13:45:34;23.80;56.10
48734;DHT22;34530;52.084;5.146;2022-09-12T13:48:01;23.90;56.00
48734;DHT22;34530;52.084;5.146;2022-09-12T13:50:36;23.90;56.10
48734;DHT22;34530;52.084;5.146;2022-09-12T13:53:06;23.90;56.00
48734;DHT22;34530;52.084;5.146;2022-09-12T13:55:40;23.90;56.00
48734;DHT22;34530;52.084;5.146;2022-09-12T13:58:16;23.90;55.90
48734;DHT22;34530;52.084;5.146;2022-09-12T14:00:43;23.90;55.90
48734;DHT22;34530;52.084;5.146;2022-09-12T14:03:30;23.90;55.90
48734;DHT22;34530;52.084;5.146;2022-09-12T14:06:15;24.00;55.90
48734;DHT22;34530;52.084;5.146;2022-09-12T14:08:42;24.00;56.00
48734;DHT22;34530;52.084;5.146;2022-09-12T14:11:28;24.00;56.00
48734;DHT22;34530;52.084;5.146;2022-09-12T14:13:55;24.00;55.90
48734;DHT22;34530;52.084;5.146;2022-09-12T14:16:22;24.00;55.90
48734;DHT22;34530;52.084;5.146;2022-09-12T14:18:49;24.00;55.90
48734;DHT22;34530;52.084;5.146;2022-09-12T14:23:56;24.10;55.80
48734;DHT22;34530;52.084;5.146;2022-09-12T14:26:24;24.10;55.80
48734;DHT22;34530;52.084;5.146;2022-09-12T14:28:52;24.10;55.80
48734;DHT22;34530;52.084;5.146;2022-09-12T14:31:28;24.10;55.80
48734;DHT22;34530;52.084;5.146;2022-09-12T14:34:07;24.10;55.80
48734;DHT22;34530;52.084;5.146;2022-09-12T14:36:42;24.10;55.80
48734;DHT22;34530;52.084;5.146;2022-09-12T14:39:41;24.10;55.70
48734;DHT22;34530;52.084;5.146;2022-09-12T14:42:17;24.20;55.70
48734;DHT22;34530;52.084;5.146;2022-09-12T14:44:59;24.20;55.70
48734;DHT22;34530;52.084;5.146;2022-09-12T14:47:27;24.20;55.70
48734;DHT22;34530;52.084;5.146;2022-09-12T14:49:54;24.20;55.80
48734;DHT22;34530;52.084;5.146;2022-09-12T14:52:31;24.20;55.70
48734;DHT22;34530;52.084;5.146;2022-09-12T14:55:01;24.20;55.60
48734;DHT22;34530;52.084;5.146;2022-09-12T14:57:36;24.20;55.60
48734;DHT22;34530;52.084;5.146;2022-09-12T15:02:42;24.30;55.60
48734;DHT22;34530;52.084;5.146;2022-09-12T15:07:44;24.30;55.60
48734;DHT22;34530;52.084;5.146;2022-09-12T15:10:18;24.30;55.50
48734;DHT22;34530;52.084;5.146;2022-09-12T15:12:47;24.30;55.50
48734;DHT22;34530;52.084;5.146;2022-09-12T15:15:15;24.30;55.50
48734;DHT22;34530;52.084;5.146;2022-09-12T15:17:41;24.30;55.50
48734;DHT22;34530;52.084;5.146;2022-09-12T15:20:07;24.30;55.40
48734;DHT22;34530;52.084;5.146;2022-09-12T15:22:34;24.30;55.40
48734;DHT22;34530;52.084;5.146;2022-09-12T15:25:00;24.40;55.50
48734;DHT22;34530;52.084;5.146;2022-09-12T15:27:26;24.40;55.40
48734;DHT22;34530;52.084;5.146;2022-09-12T15:29:52;24.40;55.40
48734;DHT22;34530;52.084;5.146;2022-09-12T15:32:30;24.40;55.40
48734;DHT22;34530;52.084;5.146;2022-09-12T15:34:55;24.40;55.30
48734;DHT22;34530;52.084;5.146;2022-09-12T15:37:23;24.40;55.30
48734;DHT22;34530;52.084;5.146;2022-09-12T15:39:49;24.40;55.20
48734;DHT22;34530;52.084;5.146;2022-09-12T15:42:15;24.40;55.20
48734;DHT22;34530;52.084;5.146;2022-09-12T15:44:41;24.40;55.20
48734;DHT22;34530;52.084;5.146;2022-09-12T15:47:11;24.50;55.20
48734;DHT22;34530;52.084;5.146;2022-09-12T15:49:37;24.50;55.10
48734;DHT22;34530;52.084;5.146;2022-09-12T15:52:03;24.50;55.10
48734;DHT22;34530;52.084;5.146;2022-09-12T15:54:28;24.50;55.70
48734;DHT22;34530;52.084;5.146;2022-09-12T15:56:54;24.50;55.00
48734;DHT22;34530;52.084;5.146;2022-09-12T15:59:20;24.50;55.60
48734;DHT22;34530;52.084;5.146;2022-09-12T16:01:45;24.50;55.00
48734;DHT22;34530;52.084;5.146;2022-09-12T16:04:26;24.50;55.00
48734;DHT22;34530;52.084;5.146;2022-09-12T16:06:54;24.50;54.80
48734;DHT22;34530;52.084;5.146;2022-09-12T16:09:21;24.50;54.90
48734;DHT22;34530;52.084;5.146;2022-09-12T16:11:47;24.60;54.90
48734;DHT22;34530;52.084;5.146;2022-09-12T16:14:13;24.60;54.80
48734;DHT22;34530;52.084;5.146;2022-09-12T16:16:40;24.60;54.80
48734;DHT22;34530;52.084;5.146;2022-09-12T16:19:06;24.60;54.80
48734;DHT22;34530;52.084;5.146;2022-09-12T16:21:35;24.60;54.80
48734;DHT22;34530;52.084;5.146;2022-09-12T16:24:01;24.60;54.70
48734;DHT22;34530;52.084;5.146;2022-09-12T16:26:27;24.60;54.70
48734;DHT22;34530;52.084;5.146;2022-09-12T16:28:54;24.70;54.70
48734;DHT22;34530;52.084;5.146;2022-09-12T16:31:20;24.70;54.70
48734;DHT22;34530;52.084;5.146;2022-09-12T16:33:47;24.70;54.70
48734;DHT22;34530;52.084;5.146;2022-09-12T16:36:14;24.70;54.70
48734;DHT22;34530;52.084;5.146;2022-09-12T16:38:43;24.70;54.70
48734;DHT22;34530;52.084;5.146;2022-09-12T16:41:09;24.70;54.60
48734;DHT22;34530;52.084;5.146;2022-09-12T16:43:35;24.70;54.60
48734;DHT22;34530;52.084;5.146;2022-09-12T16:46:15;24.70;54.50
48734;DHT22;34530;52.084;5.146;2022-09-12T16:48:46;24.70;54.50
48734;DHT22;34530;52.084;5.146;2022-09-12T16:51:14;24.70;54.50
48734;DHT22;34530;52.084;5.146;2022-09-12T16:53:41;24.70;54.50
48734;DHT22;34530;52.084;5.146;2022-09-12T16:56:07;24.70;54.50
48734;DHT22;34530;52.084;5.146;2022-09-12T16:58:38;24.70;54.40
48734;DHT22;34530;52.084;5.146;2022-09-12T17:01:06;24.70;54.40
48734;DHT22;34530;52.084;5.146;2022-09-12T17:03:32;24.70;54.40
48734;DHT22;34530;52.084;5.146;2022-09-12T17:06:10;24.70;54.40
48734;DHT22;34530;52.084;5.146;2022-09-12T17:08:38;24.80;54.40
48734;DHT22;34530;52.084;5.146;2022-09-12T17:11:07;24.80;54.40
48734;DHT22;34530;52.084;5.146;2022-09-12T17:13:34;24.80;54.40
48734;DHT22;34530;52.084;5.146;2022-09-12T17:16:04;24.80;54.40
48734;DHT22;34530;52.084;5.146;2022-09-12T17:18:30;24.80;54.30
48734;DHT22;34530;52.084;5.146;2022-09-12T17:20:55;24.80;54.30
48734;DHT22;34530;52.084;5.146;2022-09-12T17:23:21;24.80;54.30
48734;DHT22;34530;52.084;5.146;2022-09-12T17:25:47;24.80;54.30
48734;DHT22;34530;52.084;5.146;2022-09-12T17:28:14;24.80;54.30
48734;DHT22;34530;52.084;5.146;2022-09-12T17:30:40;24.80;54.20
48734;DHT22;34530;52.084;5.146;2022-09-12T17:33:06;24.80;54.20
48734;DHT22;34530;52.084;5.146;2022-09-12T17:35:36;24.80;54.20
48734;DHT22;34530;52.084;5.146;2022-09-12T17:38:02;24.80;54.20
48734;DHT22;34530;52.084;5.146;2022-09-12T17:40:28;24.80;54.20
48734;DHT22;34530;52.084;5.146;2022-09-12T17:42:54;24.80;54.20
48734;DHT22;34530;52.084;5.146;2022-09-12T17:45:21;24.80;54.20
48734;DHT22;34530;52.084;5.146;2022-09-12T17:47:46;24.80;54.10
48734;DHT22;34530;52.084;5.146;2022-09-12T17:50:12;24.80;54.20
48734;DHT22;34530;52.084;5.146;2022-09-12T17:52:38;24.80;54.70
48734;DHT22;34530;52.084;5.146;2022-09-12T17:55:03;24.80;54.10
48734;DHT22;34530;52.084;5.146;2022-09-12T17:57:29;24.80;54.10
48734;DHT22;34530;52.084;5.146;2022-09-12T17:59:55;24.80;54.10
48734;DHT22;34530;52.084;5.146;2022-09-12T18:02:20;24.80;54.10
48734;DHT22;34530;52.084;5.146;2022-09-12T18:04:46;24.80;54.10
48734;DHT22;34530;52.084;5.146;2022-09-12T18:07:14;24.90;54.10
48734;DHT22;34530;52.084;5.146;2022-09-12T18:09:41;24.90;54.10
48734;DHT22;34530;52.084;5.146;2022-09-12T18:12:07;24.90;54.10
48734;DHT22;34530;52.084;5.146;2022-09-12T18:14:33;24.90;54.10
48734;DHT22;34530;52.084;5.146;2022-09-12T18:16:59;24.90;54.10
48734;DHT22;34530;52.084;5.146;2022-09-12T18:19:26;24.90;54.10
48734;DHT22;34530;52.084;5.146;2022-09-12T18:21:55;24.90;54.10
48734;DHT22;34530;52.084;5.146;2022-09-12T18:24:21;24.90;54.00